createdAt,value
2022-08-03T00:00:26.961Z,24.41
2022-08-03T00:02:53.959Z,24.33
2022-08-03T00:05:20.890Z,24.24
2022-08-03T00:07:48.621Z,24.53
2022-08-03T00:10:17.266Z,24.55
2022-08-03T00:12:43.949Z,24.32
2022-08-03T00:15:11.343Z,24.30
2022-08-03T00:17:53.674Z,23.94
2022-08-03T00:20:24.026Z,23.46
2022-08-03T00:22:51.495Z,23.80
2022-08-03T00:25:19.268Z,24.11
2022-08-03T00:27:45.852Z,24.47
2022-08-03T00:30:15.343Z,23.89
2022-08-03T00:32:45.165Z,23.53
2022-08-03T00:35:28.041Z,23.94
2022-08-03T00:37:59.986Z,24.52
2022-08-03T00:40:26.638Z,24.17
2022-08-03T00:42:54.556Z,23.66
2022-08-03T00:45:26.474Z,23.71
2022-08-03T00:47:53.580Z,24.01
2022-08-03T00:50:22.876Z,24.36
2022-08-03T00:52:51.724Z,24.40
2022-08-03T00:55:18.651Z,24.09
2022-08-03T00:57:46.291Z,24.09
2022-08-03T01:00:17.403Z,23.76
2022-08-03T01:02:44.075Z,23.66
2022-08-03T01:05:11.109Z,24.01
2022-08-03T01:07:58.842Z,24.29
2022-08-03T01:11:00.578Z,23.77
2022-08-03T01:14:01.243Z,23.27
2022-08-03T01:16:41.384Z,23.15
2022-08-03T01:19:41.141Z,23.45
2022-08-03T01:22:32.091Z,23.82
2022-08-03T01:25:11.650Z,24.08
2022-08-03T01:27:51.497Z,24.18
2022-08-03T01:30:19.018Z,23.51
2022-08-03T01:33:01.082Z,23.25
2022-08-03T01:35:52.491Z,23.24
2022-08-03T01:38:26.187Z,23.54
2022-08-03T01:40:54.788Z,23.65
2022-08-03T01:44:28.487Z,23.68
2022-08-03T01:46:16.004Z,23.24
2022-08-03T01:48:44.868Z,23.12
2022-08-03T01:51:13.478Z,22.77
2022-08-03T01:53:44.196Z,22.73
2022-08-03T01:56:13.368Z,22.89
2022-08-03T01:58:41.730Z,23.02
2022-08-03T02:01:10.429Z,22.83
2022-08-03T02:03:59.982Z,22.61
2022-08-03T02:07:00.365Z,22.29
2022-08-03T02:09:20.035Z,22.55
2022-08-03T02:11:47.431Z,22.66
2022-08-03T02:14:15.837Z,22.72
2022-08-03T02:16:45.434Z,22.73
2022-08-03T02:19:13.674Z,22.39
2022-08-03T02:21:55.849Z,22.68
2022-08-03T02:24:27.522Z,22.99
2022-08-03T02:26:56.254Z,23.05
2022-08-03T02:29:38.629Z,22.89
2022-08-03T02:32:12.858Z,22.90
2022-08-03T02:34:42.094Z,22.81
2022-08-03T02:37:12.028Z,22.95
2022-08-03T02:39:41.859Z,22.50
2022-08-03T02:42:12.241Z,22.05
2022-08-03T02:44:43.773Z,22.64
2022-08-03T02:47:11.739Z,22.83
2022-08-03T02:49:50.701Z,22.90
2022-08-03T02:52:21.626Z,22.65
2022-08-03T02:54:51.130Z,23.10
2022-08-03T02:57:20.021Z,23.16
2022-08-03T02:59:47.594Z,22.92
2022-08-03T03:02:16.588Z,22.65
2022-08-03T03:04:53.748Z,22.53
2022-08-03T03:07:35.362Z,22.88
2022-08-03T03:10:18.662Z,23.24
2022-08-03T03:12:46.813Z,22.90
2022-08-03T03:15:13.400Z,23.00
2022-08-03T03:17:42.546Z,23.13
2022-08-03T03:20:09.696Z,23.35
2022-08-03T03:22:36.518Z,22.70
2022-08-03T03:25:03.493Z,22.61
2022-08-03T03:27:30.691Z,21.98
2022-08-03T03:29:59.277Z,22.17
2022-08-03T03:32:29.802Z,22.18
2022-08-03T03:34:57.038Z,22.26
2022-08-03T03:37:23.611Z,22.35
2022-08-03T03:39:50.447Z,22.10
2022-08-03T03:42:17.416Z,22.13
2022-08-03T03:44:44.237Z,22.13
2022-08-03T03:47:10.930Z,21.93
2022-08-03T03:49:41.249Z,22.20
2022-08-03T03:52:07.813Z,21.58
2022-08-03T03:54:45.818Z,21.83
2022-08-03T03:57:12.956Z,21.72
2022-08-03T03:59:43.953Z,21.47
2022-08-03T04:02:12.122Z,21.53
2022-08-03T04:04:57.566Z,21.58
2022-08-03T04:07:44.694Z,21.88
2022-08-03T04:10:36.895Z,22.22
2022-08-03T04:13:10.802Z,21.97
2022-08-03T04:15:39.813Z,21.44
2022-08-03T04:18:09.710Z,21.43
2022-08-03T04:20:38.821Z,21.54
2022-08-03T04:23:15.521Z,21.70
2022-08-03T04:25:43.979Z,21.47
2022-08-03T04:28:30.855Z,21.67
2022-08-03T04:31:01.293Z,21.39
2022-08-03T04:33:31.321Z,21.23
2022-08-03T04:36:03.175Z,21.20
2022-08-03T04:38:38.650Z,21.40
2022-08-03T04:41:05.699Z,21.79
2022-08-03T04:43:34.195Z,21.61
2022-08-03T04:46:02.556Z,21.62
2022-08-03T04:48:29.326Z,21.46
2022-08-03T04:50:56.399Z,21.64
2022-08-03T04:53:23.253Z,22.17
2022-08-03T04:55:49.963Z,21.92
2022-08-03T04:58:16.478Z,21.56
2022-08-03T05:00:43.607Z,21.31
2022-08-03T05:03:20.285Z,21.33
2022-08-03T05:06:01.715Z,21.93
2022-08-03T05:08:29.259Z,21.83
2022-08-03T05:10:58.903Z,21.80
2022-08-03T05:13:26.052Z,21.63
2022-08-03T05:15:52.703Z,21.58
2022-08-03T05:18:19.379Z,21.84
2022-08-03T05:20:45.937Z,22.40
2022-08-03T05:23:12.645Z,22.15
2022-08-03T05:25:39.421Z,22.52
2022-08-03T05:28:06.043Z,22.59
2022-08-03T05:30:34.107Z,22.99
2022-08-03T05:33:02.752Z,23.12
2022-08-03T05:35:57.265Z,22.87
2022-08-03T05:38:24.079Z,22.59
2022-08-03T05:40:56.998Z,23.07
2022-08-03T05:43:24.987Z,23.24
2022-08-03T05:46:11.767Z,23.28
2022-08-03T05:48:38.368Z,23.47
2022-08-03T05:51:11.094Z,23.22
2022-08-03T05:53:38.595Z,23.17
2022-08-03T05:56:13.617Z,23.18
2022-08-03T05:58:44.097Z,23.25
2022-08-03T06:01:11.035Z,23.54
2022-08-03T06:03:37.689Z,23.61
2022-08-03T06:06:04.602Z,23.92
2022-08-03T06:08:31.239Z,24.10
2022-08-03T06:10:57.796Z,24.25
2022-08-03T06:13:24.481Z,24.35
2022-08-03T06:15:51.031Z,24.42
2022-08-03T06:18:17.812Z,24.41
2022-08-03T06:20:44.466Z,24.50
2022-08-03T06:23:16.178Z,24.58
2022-08-03T06:25:44.790Z,24.49
2022-08-03T06:31:01.275Z,24.45
2022-08-03T06:34:30.907Z,24.59
2022-08-03T06:36:15.259Z,24.74
2022-08-03T06:38:41.890Z,24.77
2022-08-03T06:41:08.694Z,24.72
2022-08-03T06:43:37.804Z,24.71
2022-08-03T06:46:05.526Z,24.75
2022-08-03T06:48:32.626Z,24.87
2022-08-03T06:50:59.538Z,24.90
2022-08-03T06:53:26.298Z,24.88
2022-08-03T06:55:55.048Z,24.90
2022-08-03T06:58:22.163Z,24.88
2022-08-03T07:00:48.729Z,24.92
2022-08-03T07:03:15.571Z,25.05
2022-08-03T07:05:43.489Z,25.12
2022-08-03T07:08:10.448Z,25.21
2022-08-03T07:10:37.254Z,25.25
2022-08-03T07:13:04.837Z,25.30
2022-08-03T07:15:54.327Z,25.34
2022-08-03T07:18:24.592Z,25.40
2022-08-03T07:20:58.061Z,25.39
2022-08-03T07:23:25.683Z,25.39
2022-08-03T07:25:52.614Z,25.50
2022-08-03T07:28:19.874Z,25.51
2022-08-03T07:30:46.615Z,25.55
2022-08-03T07:33:13.494Z,25.57
2022-08-03T07:35:40.052Z,25.56
2022-08-03T07:38:06.777Z,25.60
2022-08-03T07:40:33.444Z,25.57
2022-08-03T07:43:00.168Z,25.64
2022-08-03T07:45:27.026Z,25.76
2022-08-03T07:47:54.308Z,25.91
2022-08-03T07:50:21.860Z,25.85
2022-08-03T07:52:49.552Z,25.91
2022-08-03T07:55:18.256Z,25.94
2022-08-03T07:57:45.015Z,26.04
2022-08-03T08:00:19.321Z,26.10
2022-08-03T08:02:46.287Z,26.18
2022-08-03T08:05:13.199Z,26.17
2022-08-03T08:07:40.308Z,26.19
2022-08-03T08:10:09.897Z,26.16
2022-08-03T08:12:38.590Z,26.21
2022-08-03T08:15:06.050Z,26.21
2022-08-03T08:17:42.051Z,26.18
2022-08-03T08:20:09.813Z,26.23
2022-08-03T08:22:36.360Z,26.32
2022-08-03T08:25:04.403Z,26.32
2022-08-03T08:28:30.081Z,26.36
2022-08-03T08:30:20.164Z,26.32
2022-08-03T08:32:47.401Z,26.41
2022-08-03T08:35:14.091Z,26.43
2022-08-03T08:37:41.271Z,26.43
2022-08-03T08:40:09.146Z,26.52
2022-08-03T08:42:40.334Z,26.65
2022-08-03T08:45:12.042Z,26.75
2022-08-03T08:47:51.788Z,26.86
2022-08-03T08:50:22.761Z,26.87
2022-08-03T08:52:56.005Z,26.90
2022-08-03T08:55:24.111Z,26.95
2022-08-03T08:58:01.707Z,27.05
2022-08-03T09:00:30.827Z,27.03
2022-08-03T09:02:57.355Z,27.25
2022-08-03T09:05:41.387Z,27.12
2022-08-03T09:08:11.030Z,27.15
2022-08-03T09:10:37.602Z,27.23
2022-08-03T09:13:04.261Z,27.30
2022-08-03T09:15:33.203Z,27.35
2022-08-03T09:18:02.574Z,27.40
2022-08-03T09:20:31.452Z,27.43
2022-08-03T09:23:00.573Z,27.42
2022-08-03T09:25:37.110Z,27.55
2022-08-03T09:28:33.726Z,27.60
2022-08-03T09:31:01.950Z,27.65
2022-08-03T09:33:36.025Z,27.83
2022-08-03T09:36:03.170Z,27.92
2022-08-03T09:38:30.086Z,27.98
2022-08-03T09:41:00.290Z,27.82
2022-08-03T09:43:27.966Z,27.85
2022-08-03T09:46:04.089Z,27.97
2022-08-03T09:48:31.760Z,28.08
2022-08-03T09:51:14.243Z,28.15
2022-08-03T09:53:58.522Z,28.14
2022-08-03T09:56:41.504Z,28.34
2022-08-03T09:59:08.902Z,28.37
2022-08-03T10:01:36.389Z,28.47
2022-08-03T10:04:05.146Z,28.57
2022-08-03T10:06:32.637Z,28.61
2022-08-03T10:09:09.461Z,28.62
2022-08-03T10:11:41.208Z,28.66
2022-08-03T10:14:11.437Z,28.77
2022-08-03T10:16:40.251Z,28.70
2022-08-03T10:19:08.356Z,28.87
2022-08-03T10:21:39.315Z,28.64
2022-08-03T10:24:08.826Z,28.74
2022-08-03T10:26:37.961Z,28.60
2022-08-03T10:29:12.837Z,28.68
2022-08-03T10:31:57.890Z,28.78
2022-08-03T10:34:29.161Z,28.86
2022-08-03T10:36:58.771Z,28.90
2022-08-03T10:39:29.824Z,28.98
2022-08-03T10:41:58.769Z,29.05
2022-08-03T10:44:33.379Z,29.11
2022-08-03T10:47:01.062Z,29.22
2022-08-03T10:49:34.846Z,29.20
2022-08-03T10:52:12.875Z,29.23
2022-08-03T10:55:07.728Z,29.25
2022-08-03T10:57:43.835Z,29.35
2022-08-03T11:00:15.451Z,29.31
2022-08-03T11:03:07.013Z,29.31
2022-08-03T11:05:45.482Z,29.46
2022-08-03T11:08:28.733Z,29.57
2022-08-03T11:10:57.971Z,29.68
2022-08-03T11:13:26.139Z,29.69
2022-08-03T11:16:01.602Z,29.69
2022-08-03T11:18:30.634Z,29.68
2022-08-03T11:20:59.944Z,29.66
2022-08-03T11:24:04.810Z,29.57
2022-08-03T11:26:33.752Z,29.45
2022-08-03T11:29:29.352Z,29.59
2022-08-03T11:31:56.243Z,29.67
2022-08-03T11:34:24.410Z,29.66
2022-08-03T11:37:21.443Z,29.81
2022-08-03T11:39:50.742Z,29.95
2022-08-03T11:42:23.806Z,29.91
2022-08-03T11:44:51.717Z,29.94
2022-08-03T11:47:20.796Z,29.87
2022-08-03T11:49:49.039Z,29.95
2022-08-03T11:52:17.676Z,30.02
2022-08-03T11:54:44.524Z,30.01
2022-08-03T11:57:11.328Z,30.05
2022-08-03T11:59:38.763Z,30.00
2022-08-03T12:02:14.702Z,30.17
2022-08-03T12:04:58.327Z,30.14
2022-08-03T12:08:02.720Z,30.25
2022-08-03T12:10:15.123Z,30.25
2022-08-03T12:12:46.338Z,30.20
2022-08-03T12:15:13.446Z,30.22
2022-08-03T12:17:41.530Z,30.30
2022-08-03T12:20:10.327Z,30.35
2022-08-03T12:22:40.731Z,30.33
2022-08-03T12:25:09.012Z,30.37
2022-08-03T12:27:36.384Z,30.46
2022-08-03T12:30:04.002Z,30.50
2022-08-03T12:32:31.167Z,30.45
2022-08-03T12:35:04.404Z,30.42
2022-08-03T12:37:32.050Z,30.44
2022-08-03T12:40:09.999Z,30.54
2022-08-03T12:42:38.942Z,30.64
2022-08-03T12:45:26.427Z,30.61
2022-08-03T12:47:58.022Z,30.63
2022-08-03T12:50:33.853Z,30.74
2022-08-03T12:53:02.521Z,30.80
2022-08-03T12:55:56.551Z,30.83
2022-08-03T12:58:33.803Z,30.89
2022-08-03T13:01:01.670Z,30.86
2022-08-03T13:03:42.202Z,30.76
2022-08-03T13:06:18.114Z,30.83
2022-08-03T13:08:45.967Z,30.83
2022-08-03T13:11:55.961Z,30.77
2022-08-03T13:14:16.838Z,30.67
2022-08-03T13:16:47.559Z,30.73
2022-08-03T13:19:15.589Z,30.80
2022-08-03T13:22:01.602Z,30.86
2022-08-03T13:24:31.398Z,30.93
2022-08-03T13:26:58.595Z,31.01
2022-08-03T13:29:25.142Z,31.14
2022-08-03T13:31:51.882Z,31.20
2022-08-03T13:34:23.012Z,31.35
2022-08-03T13:39:57.794Z,31.45
2022-08-03T13:42:30.592Z,31.46
2022-08-03T13:44:57.578Z,31.40
2022-08-03T13:47:24.087Z,31.32
2022-08-03T13:49:54.217Z,31.31
2022-08-03T13:52:28.155Z,31.37
2022-08-03T13:54:54.798Z,31.36
2022-08-03T13:58:03.078Z,31.40
2022-08-03T14:00:09.044Z,31.50
2022-08-03T14:02:35.728Z,31.55
2022-08-03T14:05:02.471Z,31.57
2022-08-03T14:07:29.029Z,31.53
2022-08-03T14:09:55.761Z,31.51
2022-08-03T14:12:22.579Z,31.45
2022-08-03T14:14:49.282Z,31.45
2022-08-03T14:17:16.389Z,31.36
2022-08-03T14:19:53.240Z,31.30
2022-08-03T14:22:21.345Z,31.48
2022-08-03T14:24:48.034Z,31.31
2022-08-03T14:27:16.419Z,31.53
2022-08-03T14:29:43.021Z,31.71
2022-08-03T14:32:13.252Z,31.55
2022-08-03T14:34:40.847Z,31.73
2022-08-03T14:37:07.772Z,31.83
2022-08-03T14:42:21.616Z,31.95
2022-08-03T14:44:48.305Z,31.94
2022-08-03T14:47:15.038Z,31.92
2022-08-03T14:50:38.327Z,32.02
2022-08-03T14:52:29.004Z,32.07
2022-08-03T14:54:55.580Z,32.04
2022-08-03T14:57:22.471Z,32.12
2022-08-03T14:59:55.903Z,32.13
2022-08-03T15:02:24.434Z,32.12
2022-08-03T15:04:51.649Z,32.00
2022-08-03T15:07:24.413Z,32.18
2022-08-03T15:09:54.489Z,32.08
2022-08-03T15:12:21.476Z,32.05
2022-08-03T15:14:49.152Z,32.05
2022-08-03T15:17:21.418Z,32.10
2022-08-03T15:20:02.236Z,32.12
2022-08-03T15:22:35.405Z,32.03
2022-08-03T15:26:04.210Z,32.01
2022-08-03T15:28:02.763Z,32.25
2022-08-03T15:30:31.334Z,32.26
2022-08-03T15:32:57.900Z,32.21
2022-08-03T15:35:24.723Z,32.23
2022-08-03T15:37:51.439Z,32.21
2022-08-03T15:40:18.089Z,32.16
2022-08-03T15:42:47.748Z,32.14
2022-08-03T15:45:14.417Z,32.20
2022-08-03T15:47:44.656Z,32.20
2022-08-03T15:50:11.995Z,32.24
2022-08-03T15:52:38.628Z,32.20
2022-08-03T15:55:05.634Z,32.21
2022-08-03T15:57:32.385Z,32.25
2022-08-03T15:59:58.977Z,32.21
2022-08-03T16:02:34.401Z,32.21
2022-08-03T16:05:01.553Z,32.21
2022-08-03T16:08:03.099Z,32.16
2022-08-03T16:10:32.192Z,32.15
2022-08-03T16:13:00.001Z,32.12
2022-08-03T16:15:27.980Z,32.05
2022-08-03T16:17:54.816Z,31.91
2022-08-03T16:20:31.234Z,31.76
2022-08-03T16:23:08.509Z,31.78
2022-08-03T16:25:40.593Z,31.76
2022-08-03T16:28:13.453Z,31.66
2022-08-03T16:30:43.503Z,31.63
2022-08-03T16:33:11.475Z,31.77
2022-08-03T16:35:43.933Z,31.88
2022-08-03T16:38:13.073Z,31.91
2022-08-03T16:40:42.560Z,31.90
2022-08-03T16:43:18.290Z,31.93
2022-08-03T16:45:49.235Z,32.01
2022-08-03T16:48:16.953Z,32.02
2022-08-03T16:50:44.289Z,32.01
2022-08-03T16:53:15.648Z,32.04
2022-08-03T16:55:53.817Z,32.00
2022-08-03T16:58:34.278Z,32.01
2022-08-03T17:01:21.472Z,31.89
2022-08-03T17:04:02.141Z,31.86
2022-08-03T17:06:37.082Z,31.88
2022-08-03T17:09:10.257Z,31.86
2022-08-03T17:11:44.271Z,31.77
2022-08-03T17:14:16.089Z,31.82
2022-08-03T17:16:52.750Z,31.80
2022-08-03T17:19:23.168Z,31.81
2022-08-03T17:21:57.288Z,31.81
2022-08-03T17:24:31.166Z,31.85
2022-08-03T17:27:01.168Z,31.62
2022-08-03T17:29:29.951Z,31.57
2022-08-03T17:31:56.832Z,31.49
2022-08-03T17:34:26.566Z,31.37
2022-08-03T17:37:27.360Z,31.41
2022-08-03T17:39:59.833Z,31.09
2022-08-03T17:42:31.321Z,30.90
2022-08-03T17:45:01.682Z,30.53
2022-08-03T17:47:29.129Z,30.51
2022-08-03T17:50:23.929Z,30.32
2022-08-03T17:53:07.414Z,30.17
2022-08-03T17:58:54.692Z,29.69
2022-08-03T18:02:00.219Z,29.49
2022-08-03T18:04:38.155Z,29.39
2022-08-03T18:07:12.544Z,29.33
2022-08-03T18:10:06.159Z,29.42
2022-08-03T18:12:43.453Z,29.29
2022-08-03T18:15:22.997Z,28.93
2022-08-03T18:17:55.858Z,28.65
2022-08-03T18:20:34.156Z,28.59
2022-08-03T18:23:08.824Z,28.59
2022-08-03T18:25:45.227Z,28.51
2022-08-03T18:28:18.745Z,28.65
2022-08-03T18:30:53.894Z,28.66
2022-08-03T18:34:19.775Z,28.68
2022-08-03T18:36:17.421Z,28.49
2022-08-03T18:38:51.656Z,28.60
2022-08-03T18:41:32.979Z,28.40
2022-08-03T18:44:08.004Z,28.44
2022-08-03T18:46:54.512Z,28.56
2022-08-03T18:49:29.061Z,28.45
2022-08-03T18:52:15.808Z,28.11
2022-08-03T18:55:19.815Z,27.78
2022-08-03T18:58:15.845Z,28.06
2022-08-03T19:01:06.171Z,28.24
2022-08-03T19:03:57.047Z,28.05
2022-08-03T19:06:28.773Z,27.97
2022-08-03T19:09:12.775Z,28.14
2022-08-03T19:12:26.015Z,28.12
2022-08-03T19:14:44.435Z,28.45
2022-08-03T19:17:14.066Z,28.14
2022-08-03T19:19:50.629Z,28.04
2022-08-03T19:22:22.362Z,27.83
2022-08-03T19:24:52.103Z,27.60
2022-08-03T19:27:21.493Z,27.45
2022-08-03T19:29:58.411Z,27.17
2022-08-03T19:32:29.982Z,27.65
2022-08-03T19:34:59.641Z,27.71
2022-08-03T19:37:38.596Z,27.83
2022-08-03T19:40:10.797Z,27.76
2022-08-03T19:42:44.400Z,27.36
2022-08-03T19:45:14.846Z,27.67
2022-08-03T19:47:58.838Z,27.18
2022-08-03T19:50:26.541Z,26.95
2022-08-03T19:52:58.357Z,26.95
2022-08-03T19:55:28.652Z,27.06
2022-08-03T19:58:01.177Z,27.38
2022-08-03T20:00:32.718Z,27.44
2022-08-03T20:03:23.408Z,27.36
2022-08-03T20:05:54.235Z,27.20
2022-08-03T20:08:22.035Z,27.34
2022-08-03T20:10:49.305Z,27.58
2022-08-03T20:13:19.374Z,27.66
2022-08-03T20:15:46.576Z,27.85
2022-08-03T20:18:16.744Z,27.79
2022-08-03T20:20:48.203Z,27.05
2022-08-03T20:23:19.573Z,26.60
2022-08-03T20:25:58.288Z,26.90
2022-08-03T20:28:50.562Z,26.66
2022-08-03T20:31:21.637Z,26.46
2022-08-03T20:33:51.325Z,26.74
2022-08-03T20:36:18.926Z,26.92
2022-08-03T20:38:47.824Z,27.29
2022-08-03T20:41:18.625Z,27.49
2022-08-03T20:43:49.318Z,27.39
2022-08-03T20:46:32.789Z,26.84
2022-08-03T20:49:06.068Z,26.64
2022-08-03T20:51:52.821Z,27.04
2022-08-03T20:54:31.142Z,26.75
2022-08-03T20:57:00.734Z,27.03
2022-08-03T20:59:47.390Z,26.77
2022-08-03T21:02:28.989Z,27.14
2022-08-03T21:04:59.267Z,26.56
2022-08-03T21:08:04.203Z,26.45
2022-08-03T21:10:21.235Z,26.18
2022-08-03T21:13:04.918Z,29.84
2022-08-03T21:13:15.007Z,26.09
2022-08-03T21:16:06.516Z,26.03
2022-08-03T21:18:38.485Z,25.82
2022-08-03T21:21:06.944Z,26.01
2022-08-03T21:23:47.614Z,26.40
2022-08-03T21:26:17.350Z,26.66
2022-08-03T21:28:46.404Z,26.25
2022-08-03T21:31:14.494Z,26.08
2022-08-03T21:33:54.443Z,26.08
2022-08-03T21:36:21.033Z,25.42
2022-08-03T21:38:56.530Z,25.56
2022-08-03T21:41:27.932Z,26.09
2022-08-03T21:43:54.606Z,25.94
2022-08-03T21:46:22.768Z,26.39
2022-08-03T21:48:55.184Z,26.43
2022-08-03T21:51:25.311Z,25.82
2022-08-03T21:54:03.020Z,25.87
2022-08-03T21:56:42.071Z,26.23
2022-08-03T21:59:16.289Z,26.12
2022-08-03T22:01:46.391Z,26.51
2022-08-03T22:04:42.679Z,26.26
2022-08-03T22:07:06.928Z,25.69
2022-08-03T22:09:35.295Z,25.84
2022-08-03T22:12:02.054Z,26.18
2022-08-03T22:14:29.838Z,26.19
2022-08-03T22:16:56.677Z,26.18
2022-08-03T22:19:23.323Z,26.01
2022-08-03T22:21:50.545Z,25.94
2022-08-03T22:24:23.963Z,25.80
2022-08-03T22:27:10.084Z,25.91
2022-08-03T22:29:39.735Z,25.85
2022-08-03T22:32:06.959Z,25.30
2022-08-03T22:34:34.283Z,25.49
2022-08-03T22:37:02.819Z,25.21
2022-08-03T22:39:30.295Z,25.35
2022-08-03T22:41:58.954Z,25.64
2022-08-03T22:44:27.510Z,25.46
2022-08-03T22:46:55.440Z,25.55
2022-08-03T22:49:22.980Z,25.21
2022-08-03T22:51:52.101Z,25.46
2022-08-03T22:54:18.818Z,25.57
2022-08-03T22:56:49.851Z,25.31
2022-08-03T22:59:40.599Z,25.20
2022-08-03T23:02:20.869Z,25.46
2022-08-03T23:04:55.065Z,25.01
2022-08-03T23:07:32.532Z,25.32
2022-08-03T23:10:02.107Z,25.37
2022-08-03T23:12:30.463Z,25.61
2022-08-03T23:15:02.210Z,25.86
2022-08-03T23:17:31.412Z,26.12
2022-08-03T23:20:07.336Z,26.25
2022-08-03T23:22:35.359Z,26.12
2022-08-03T23:25:04.608Z,25.68
2022-08-03T23:27:32.664Z,25.19
2022-08-03T23:30:01.052Z,25.68
2022-08-03T23:32:29.866Z,25.21
2022-08-03T23:35:21.060Z,25.57
2022-08-03T23:38:04.450Z,25.58
2022-08-03T23:40:36.765Z,25.04
2022-08-03T23:43:04.356Z,25.40
2022-08-03T23:45:34.809Z,25.79
2022-08-03T23:48:01.539Z,24.98
2022-08-03T23:50:35.735Z,24.88
2022-08-03T23:53:12.041Z,24.77
2022-08-03T23:56:13.237Z,24.98
2022-08-03T23:58:40.033Z,24.61
